sensor_id;sensor_type;location;lat;lon;timestamp;P1;durP1;ratioP1;P2;durP2;ratioP2
71176;SDS011;58877;51.992;4.504;2024-03-29T00:01:16;3.59;;;2.37;;
71176;SDS011;58877;51.992;4.504;2024-03-29T00:03:42;3.33;;;2.18;;
71176;SDS011;58877;51.992;4.504;2024-03-29T00:06:08;2.95;;;1.94;;
71176;SDS011;58877;51.992;4.504;2024-03-29T00:08:34;2.04;;;1.36;;
71176;SDS011;58877;51.992;4.504;2024-03-29T00:10:59;3.25;;;2.15;;
71176;SDS011;58877;51.992;4.504;2024-03-29T00:13:25;3.78;;;2.48;;
71176;SDS011;58877;51.992;4.504;2024-03-29T00:15:51;3.29;;;2.14;;
71176;SDS011;58877;51.992;4.504;2024-03-29T00:18:16;2.97;;;1.92;;
71176;SDS011;58877;51.992;4.504;2024-03-29T00:20:42;3.00;;;1.96;;
71176;SDS011;58877;51.992;4.504;2024-03-29T00:23:08;3.25;;;2.17;;
71176;SDS011;58877;51.992;4.504;2024-03-29T00:25:33;3.04;;;2.04;;
71176;SDS011;58877;51.992;4.504;2024-03-29T00:27:59;3.14;;;2.10;;
71176;SDS011;58877;51.992;4.504;2024-03-29T00:30:26;2.88;;;1.93;;
71176;SDS011;58877;51.992;4.504;2024-03-29T00:32:52;2.69;;;1.78;;
71176;SDS011;58877;51.992;4.504;2024-03-29T00:35:17;2.29;;;1.52;;
71176;SDS011;58877;51.992;4.504;2024-03-29T00:37:44;2.88;;;1.91;;
71176;SDS011;58877;51.992;4.504;2024-03-29T00:40:10;2.96;;;1.95;;
71176;SDS011;58877;51.992;4.504;2024-03-29T00:42:36;3.46;;;2.28;;
71176;SDS011;58877;51.992;4.504;2024-03-29T00:45:01;3.36;;;2.20;;
71176;SDS011;58877;51.992;4.504;2024-03-29T00:47:27;2.72;;;1.80;;
71176;SDS011;58877;51.992;4.504;2024-03-29T00:49:53;3.08;;;2.06;;
71176;SDS011;58877;51.992;4.504;2024-03-29T00:52:18;2.86;;;1.92;;
71176;SDS011;58877;51.992;4.504;2024-03-29T00:54:44;2.70;;;1.79;;
71176;SDS011;58877;51.992;4.504;2024-03-29T00:57:09;3.67;;;2.45;;
71176;SDS011;58877;51.992;4.504;2024-03-29T00:59:38;3.00;;;2.02;;
71176;SDS011;58877;51.992;4.504;2024-03-29T01:02:04;3.03;;;2.02;;
71176;SDS011;58877;51.992;4.504;2024-03-29T01:04:29;3.52;;;2.31;;
71176;SDS011;58877;51.992;4.504;2024-03-29T01:06:55;4.14;;;2.72;;
71176;SDS011;58877;51.992;4.504;2024-03-29T01:09:21;3.42;;;2.26;;
71176;SDS011;58877;51.992;4.504;2024-03-29T01:11:47;3.03;;;2.04;;
71176;SDS011;58877;51.992;4.504;2024-03-29T01:14:12;3.63;;;2.41;;
71176;SDS011;58877;51.992;4.504;2024-03-29T01:16:41;2.81;;;1.90;;
71176;SDS011;58877;51.992;4.504;2024-03-29T01:19:07;2.68;;;1.83;;
71176;SDS011;58877;51.992;4.504;2024-03-29T01:21:35;3.25;;;2.21;;
71176;SDS011;58877;51.992;4.504;2024-03-29T01:24:02;2.58;;;1.74;;
71176;SDS011;58877;51.992;4.504;2024-03-29T01:26:28;3.05;;;2.06;;
71176;SDS011;58877;51.992;4.504;2024-03-29T01:28:54;3.02;;;2.08;;
71176;SDS011;58877;51.992;4.504;2024-03-29T01:31:21;3.34;;;2.28;;
71176;SDS011;58877;51.992;4.504;2024-03-29T01:33:47;3.27;;;2.25;;
71176;SDS011;58877;51.992;4.504;2024-03-29T01:36:13;2.94;;;2.05;;
71176;SDS011;58877;51.992;4.504;2024-03-29T01:38:38;2.70;;;1.87;;
71176;SDS011;58877;51.992;4.504;2024-03-29T01:41:04;2.75;;;1.94;;
71176;SDS011;58877;51.992;4.504;2024-03-29T01:43:29;2.87;;;2.05;;
71176;SDS011;58877;51.992;4.504;2024-03-29T01:45:55;2.45;;;1.73;;
71176;SDS011;58877;51.992;4.504;2024-03-29T01:48:25;3.04;;;2.12;;
71176;SDS011;58877;51.992;4.504;2024-03-29T01:50:56;2.30;;;1.59;;
71176;SDS011;58877;51.992;4.504;2024-03-29T01:53:23;2.87;;;1.97;;
71176;SDS011;58877;51.992;4.504;2024-03-29T01:55:51;3.06;;;2.10;;
71176;SDS011;58877;51.992;4.504;2024-03-29T01:58:17;3.33;;;2.24;;
71176;SDS011;58877;51.992;4.504;2024-03-29T02:00:49;2.52;;;1.67;;
71176;SDS011;58877;51.992;4.504;2024-03-29T02:03:18;2.36;;;1.57;;
71176;SDS011;58877;51.992;4.504;2024-03-29T02:05:44;2.67;;;1.81;;
71176;SDS011;58877;51.992;4.504;2024-03-29T02:08:12;2.87;;;1.99;;
71176;SDS011;58877;51.992;4.504;2024-03-29T02:10:39;2.62;;;1.84;;
71176;SDS011;58877;51.992;4.504;2024-03-29T02:13:04;2.90;;;2.01;;
71176;SDS011;58877;51.992;4.504;2024-03-29T02:15:30;2.63;;;1.81;;
71176;SDS011;58877;51.992;4.504;2024-03-29T02:17:59;3.11;;;2.12;;
71176;SDS011;58877;51.992;4.504;2024-03-29T02:20:24;2.84;;;1.95;;
71176;SDS011;58877;51.992;4.504;2024-03-29T02:22:54;3.39;;;2.34;;
71176;SDS011;58877;51.992;4.504;2024-03-29T02:25:22;2.94;;;2.07;;
71176;SDS011;58877;51.992;4.504;2024-03-29T02:27:50;2.60;;;1.85;;
71176;SDS011;58877;51.992;4.504;2024-03-29T02:30:19;3.08;;;2.14;;
71176;SDS011;58877;51.992;4.504;2024-03-29T02:32:45;2.61;;;1.81;;
71176;SDS011;58877;51.992;4.504;2024-03-29T02:35:11;2.67;;;1.85;;
71176;SDS011;58877;51.992;4.504;2024-03-29T02:37:37;2.27;;;1.57;;
71176;SDS011;58877;51.992;4.504;2024-03-29T02:40:04;2.81;;;1.92;;
71176;SDS011;58877;51.992;4.504;2024-03-29T02:42:31;2.34;;;1.58;;
71176;SDS011;58877;51.992;4.504;2024-03-29T02:44:57;2.31;;;1.57;;
71176;SDS011;58877;51.992;4.504;2024-03-29T02:47:23;2.60;;;1.77;;
71176;SDS011;58877;51.992;4.504;2024-03-29T02:49:49;2.71;;;1.83;;
71176;SDS011;58877;51.992;4.504;2024-03-29T02:52:15;2.63;;;1.74;;
71176;SDS011;58877;51.992;4.504;2024-03-29T02:54:41;3.21;;;2.12;;
71176;SDS011;58877;51.992;4.504;2024-03-29T02:57:07;2.86;;;1.91;;
71176;SDS011;58877;51.992;4.504;2024-03-29T02:59:32;2.40;;;1.61;;
71176;SDS011;58877;51.992;4.504;2024-03-29T03:01:58;2.52;;;1.69;;
71176;SDS011;58877;51.992;4.504;2024-03-29T03:04:24;3.21;;;2.15;;
71176;SDS011;58877;51.992;4.504;2024-03-29T03:06:49;2.23;;;1.48;;
71176;SDS011;58877;51.992;4.504;2024-03-29T03:09:15;3.17;;;2.12;;
71176;SDS011;58877;51.992;4.504;2024-03-29T03:11:59;2.66;;;1.79;;
71176;SDS011;58877;51.992;4.504;2024-03-29T03:14:25;2.71;;;1.81;;
71176;SDS011;58877;51.992;4.504;2024-03-29T03:16:51;2.54;;;1.72;;
71176;SDS011;58877;51.992;4.504;2024-03-29T03:19:17;2.03;;;1.37;;
71176;SDS011;58877;51.992;4.504;2024-03-29T03:21:43;2.45;;;1.67;;
71176;SDS011;58877;51.992;4.504;2024-03-29T03:24:08;1.77;;;1.20;;
71176;SDS011;58877;51.992;4.504;2024-03-29T03:26:37;1.84;;;1.26;;
71176;SDS011;58877;51.992;4.504;2024-03-29T03:29:03;2.17;;;1.51;;
71176;SDS011;58877;51.992;4.504;2024-03-29T03:31:29;1.78;;;1.25;;
71176;SDS011;58877;51.992;4.504;2024-03-29T03:33:55;1.93;;;1.35;;
71176;SDS011;58877;51.992;4.504;2024-03-29T03:36:21;1.92;;;1.35;;
71176;SDS011;58877;51.992;4.504;2024-03-29T03:38:47;1.29;;;0.92;;
71176;SDS011;58877;51.992;4.504;2024-03-29T03:41:12;1.67;;;1.20;;
71176;SDS011;58877;51.992;4.504;2024-03-29T03:43:38;1.47;;;1.08;;
71176;SDS011;58877;51.992;4.504;2024-03-29T03:46:04;1.15;;;0.85;;
71176;SDS011;58877;51.992;4.504;2024-03-29T03:48:29;1.62;;;1.19;;
71176;SDS011;58877;51.992;4.504;2024-03-29T03:50:55;1.48;;;1.08;;
71176;SDS011;58877;51.992;4.504;2024-03-29T03:53:21;1.29;;;0.96;;
71176;SDS011;58877;51.992;4.504;2024-03-29T03:55:47;1.08;;;0.81;;
71176;SDS011;58877;51.992;4.504;2024-03-29T03:58:13;1.29;;;0.97;;
71176;SDS011;58877;51.992;4.504;2024-03-29T04:00:39;0.97;;;0.73;;
71176;SDS011;58877;51.992;4.504;2024-03-29T04:03:04;1.06;;;0.81;;
71176;SDS011;58877;51.992;4.504;2024-03-29T04:05:30;1.11;;;0.84;;
71176;SDS011;58877;51.992;4.504;2024-03-29T04:07:57;1.47;;;1.12;;
71176;SDS011;58877;51.992;4.504;2024-03-29T04:10:22;1.00;;;0.76;;
71176;SDS011;58877;51.992;4.504;2024-03-29T04:12:50;1.35;;;1.03;;
71176;SDS011;58877;51.992;4.504;2024-03-29T04:15:16;1.14;;;0.87;;
71176;SDS011;58877;51.992;4.504;2024-03-29T04:17:41;0.99;;;0.74;;
71176;SDS011;58877;51.992;4.504;2024-03-29T04:20:07;1.39;;;1.04;;
71176;SDS011;58877;51.992;4.504;2024-03-29T04:22:33;1.19;;;0.88;;
71176;SDS011;58877;51.992;4.504;2024-03-29T04:24:59;0.90;;;0.68;;
71176;SDS011;58877;51.992;4.504;2024-03-29T04:27:25;0.89;;;0.69;;
71176;SDS011;58877;51.992;4.504;2024-03-29T04:29:54;1.41;;;1.09;;
71176;SDS011;58877;51.992;4.504;2024-03-29T04:32:20;1.05;;;0.81;;
71176;SDS011;58877;51.992;4.504;2024-03-29T04:34:48;1.23;;;0.94;;
71176;SDS011;58877;51.992;4.504;2024-03-29T04:37:15;0.96;;;0.74;;
71176;SDS011;58877;51.992;4.504;2024-03-29T04:39:46;1.05;;;0.81;;
71176;SDS011;58877;51.992;4.504;2024-03-29T04:42:12;0.99;;;0.77;;
71176;SDS011;58877;51.992;4.504;2024-03-29T04:44:37;0.99;;;0.77;;
71176;SDS011;58877;51.992;4.504;2024-03-29T04:47:04;1.07;;;0.82;;
71176;SDS011;58877;51.992;4.504;2024-03-29T04:49:33;0.80;;;0.61;;
71176;SDS011;58877;51.992;4.504;2024-03-29T04:52:00;0.91;;;0.69;;
71176;SDS011;58877;51.992;4.504;2024-03-29T04:54:26;1.14;;;0.88;;
71176;SDS011;58877;51.992;4.504;2024-03-29T04:56:56;0.93;;;0.71;;
71176;SDS011;58877;51.992;4.504;2024-03-29T04:59:21;0.86;;;0.67;;
71176;SDS011;58877;51.992;4.504;2024-03-29T05:01:48;1.02;;;0.79;;
71176;SDS011;58877;51.992;4.504;2024-03-29T05:04:18;0.87;;;0.67;;
71176;SDS011;58877;51.992;4.504;2024-03-29T05:06:55;1.18;;;0.92;;
71176;SDS011;58877;51.992;4.504;2024-03-29T05:09:23;0.94;;;0.74;;
71176;SDS011;58877;51.992;4.504;2024-03-29T05:11:50;1.08;;;0.84;;
71176;SDS011;58877;51.992;4.504;2024-03-29T05:14:16;1.08;;;0.83;;
71176;SDS011;58877;51.992;4.504;2024-03-29T05:16:47;1.06;;;0.83;;
71176;SDS011;58877;51.992;4.504;2024-03-29T05:19:14;0.76;;;0.60;;
71176;SDS011;58877;51.992;4.504;2024-03-29T05:21:40;1.10;;;0.88;;
71176;SDS011;58877;51.992;4.504;2024-03-29T05:24:07;1.04;;;0.83;;
71176;SDS011;58877;51.992;4.504;2024-03-29T05:26:33;0.85;;;0.68;;
71176;SDS011;58877;51.992;4.504;2024-03-29T05:28:59;0.65;;;0.52;;
71176;SDS011;58877;51.992;4.504;2024-03-29T05:31:26;0.61;;;0.50;;
71176;SDS011;58877;51.992;4.504;2024-03-29T05:33:54;0.80;;;0.65;;
71176;SDS011;58877;51.992;4.504;2024-03-29T05:36:20;0.99;;;0.79;;
71176;SDS011;58877;51.992;4.504;2024-03-29T05:38:45;0.93;;;0.73;;
71176;SDS011;58877;51.992;4.504;2024-03-29T05:41:12;0.66;;;0.52;;
71176;SDS011;58877;51.992;4.504;2024-03-29T05:43:40;0.71;;;0.56;;
71176;SDS011;58877;51.992;4.504;2024-03-29T05:46:06;0.80;;;0.63;;
71176;SDS011;58877;51.992;4.504;2024-03-29T05:48:32;0.61;;;0.48;;
71176;SDS011;58877;51.992;4.504;2024-03-29T05:50:58;0.84;;;0.65;;
71176;SDS011;58877;51.992;4.504;2024-03-29T05:53:23;0.70;;;0.54;;
71176;SDS011;58877;51.992;4.504;2024-03-29T05:55:49;0.78;;;0.62;;
71176;SDS011;58877;51.992;4.504;2024-03-29T05:58:15;0.76;;;0.60;;
71176;SDS011;58877;51.992;4.504;2024-03-29T06:00:42;0.94;;;0.75;;
71176;SDS011;58877;51.992;4.504;2024-03-29T06:03:08;0.96;;;0.77;;
71176;SDS011;58877;51.992;4.504;2024-03-29T06:05:33;0.98;;;0.78;;
71176;SDS011;58877;51.992;4.504;2024-03-29T06:07:59;0.94;;;0.75;;
71176;SDS011;58877;51.992;4.504;2024-03-29T06:10:25;1.23;;;0.98;;
71176;SDS011;58877;51.992;4.504;2024-03-29T06:12:50;1.00;;;0.80;;
71176;SDS011;58877;51.992;4.504;2024-03-29T06:15:16;0.95;;;0.77;;
71176;SDS011;58877;51.992;4.504;2024-03-29T06:18:00;1.03;;;0.83;;
71176;SDS011;58877;51.992;4.504;2024-03-29T06:20:26;0.99;;;0.80;;
71176;SDS011;58877;51.992;4.504;2024-03-29T06:22:51;0.77;;;0.63;;
71176;SDS011;58877;51.992;4.504;2024-03-29T06:25:17;0.97;;;0.79;;
71176;SDS011;58877;51.992;4.504;2024-03-29T06:27:43;1.08;;;0.88;;
71176;SDS011;58877;51.992;4.504;2024-03-29T06:30:12;1.17;;;0.96;;
71176;SDS011;58877;51.992;4.504;2024-03-29T06:32:39;1.00;;;0.83;;
71176;SDS011;58877;51.992;4.504;2024-03-29T06:35:05;0.99;;;0.82;;
71176;SDS011;58877;51.992;4.504;2024-03-29T06:37:31;1.02;;;0.87;;
71176;SDS011;58877;51.992;4.504;2024-03-29T06:39:57;0.99;;;0.85;;
71176;SDS011;58877;51.992;4.504;2024-03-29T06:42:23;0.86;;;0.75;;
71176;SDS011;58877;51.992;4.504;2024-03-29T06:44:49;1.08;;;0.94;;
71176;SDS011;58877;51.992;4.504;2024-03-29T06:47:14;1.15;;;1.00;;
71176;SDS011;58877;51.992;4.504;2024-03-29T06:49:40;1.31;;;1.12;;
71176;SDS011;58877;51.992;4.504;2024-03-29T06:52:06;0.90;;;0.77;;
71176;SDS011;58877;51.992;4.504;2024-03-29T06:54:32;1.11;;;0.94;;
71176;SDS011;58877;51.992;4.504;2024-03-29T06:56:58;0.98;;;0.83;;
71176;SDS011;58877;51.992;4.504;2024-03-29T06:59:28;0.96;;;0.83;;
71176;SDS011;58877;51.992;4.504;2024-03-29T07:01:56;0.95;;;0.84;;
71176;SDS011;58877;51.992;4.504;2024-03-29T07:04:23;0.97;;;0.86;;
71176;SDS011;58877;51.992;4.504;2024-03-29T07:06:50;0.94;;;0.83;;
71176;SDS011;58877;51.992;4.504;2024-03-29T07:09:17;0.78;;;0.69;;
71176;SDS011;58877;51.992;4.504;2024-03-29T07:11:45;0.71;;;0.63;;
71176;SDS011;58877;51.992;4.504;2024-03-29T07:14:15;1.27;;;1.11;;
71176;SDS011;58877;51.992;4.504;2024-03-29T07:16:42;1.18;;;1.02;;
71176;SDS011;58877;51.992;4.504;2024-03-29T07:19:08;0.85;;;0.74;;
71176;SDS011;58877;51.992;4.504;2024-03-29T07:21:34;1.02;;;0.90;;
71176;SDS011;58877;51.992;4.504;2024-03-29T07:24:00;0.91;;;0.81;;
71176;SDS011;58877;51.992;4.504;2024-03-29T07:26:31;0.96;;;0.85;;
71176;SDS011;58877;51.992;4.504;2024-03-29T07:28:57;1.17;;;1.04;;
71176;SDS011;58877;51.992;4.504;2024-03-29T07:31:23;1.08;;;0.97;;
71176;SDS011;58877;51.992;4.504;2024-03-29T07:33:49;1.10;;;0.99;;
71176;SDS011;58877;51.992;4.504;2024-03-29T07:36:14;1.19;;;1.08;;
71176;SDS011;58877;51.992;4.504;2024-03-29T07:38:41;0.98;;;0.89;;
71176;SDS011;58877;51.992;4.504;2024-03-29T07:41:08;1.21;;;1.11;;
71176;SDS011;58877;51.992;4.504;2024-03-29T07:43:41;1.34;;;1.27;;
71176;SDS011;58877;51.992;4.504;2024-03-29T07:46:18;1.25;;;1.18;;
71176;SDS011;58877;51.992;4.504;2024-03-29T07:48:48;1.20;;;1.16;;
71176;SDS011;58877;51.992;4.504;2024-03-29T07:51:14;1.23;;;1.19;;
71176;SDS011;58877;51.992;4.504;2024-03-29T07:53:40;1.37;;;1.33;;
71176;SDS011;58877;51.992;4.504;2024-03-29T07:56:06;1.47;;;1.44;;
71176;SDS011;58877;51.992;4.504;2024-03-29T07:58:31;1.47;;;1.45;;
71176;SDS011;58877;51.992;4.504;2024-03-29T08:00:57;1.37;;;1.36;;
71176;SDS011;58877;51.992;4.504;2024-03-29T08:03:25;1.39;;;1.37;;
71176;SDS011;58877;51.992;4.504;2024-03-29T08:06:01;1.68;;;1.67;;
71176;SDS011;58877;51.992;4.504;2024-03-29T08:08:31;1.63;;;1.62;;
71176;SDS011;58877;51.992;4.504;2024-03-29T08:10:58;1.60;;;1.59;;
71176;SDS011;58877;51.992;4.504;2024-03-29T08:13:25;1.70;;;1.69;;
71176;SDS011;58877;51.992;4.504;2024-03-29T08:15:59;1.62;;;1.61;;
71176;SDS011;58877;51.992;4.504;2024-03-29T08:18:26;1.38;;;1.37;;
71176;SDS011;58877;51.992;4.504;2024-03-29T08:20:53;1.59;;;1.58;;
71176;SDS011;58877;51.992;4.504;2024-03-29T08:23:24;1.50;;;1.50;;
71176;SDS011;58877;51.992;4.504;2024-03-29T08:25:50;1.55;;;1.55;;
71176;SDS011;58877;51.992;4.504;2024-03-29T08:28:20;1.40;;;1.40;;
71176;SDS011;58877;51.992;4.504;2024-03-29T08:30:56;1.29;;;1.29;;
71176;SDS011;58877;51.992;4.504;2024-03-29T08:33:23;1.48;;;1.47;;
71176;SDS011;58877;51.992;4.504;2024-03-29T08:35:49;1.56;;;1.55;;
71176;SDS011;58877;51.992;4.504;2024-03-29T08:38:15;1.41;;;1.40;;
71176;SDS011;58877;51.992;4.504;2024-03-29T08:40:41;1.51;;;1.50;;
71176;SDS011;58877;51.992;4.504;2024-03-29T08:43:08;1.38;;;1.37;;
71176;SDS011;58877;51.992;4.504;2024-03-29T08:45:35;1.37;;;1.36;;
71176;SDS011;58877;51.992;4.504;2024-03-29T08:48:05;1.26;;;1.26;;
71176;SDS011;58877;51.992;4.504;2024-03-29T08:50:33;1.13;;;1.13;;
71176;SDS011;58877;51.992;4.504;2024-03-29T08:53:00;1.16;;;1.16;;
71176;SDS011;58877;51.992;4.504;2024-03-29T08:55:26;1.18;;;1.18;;
71176;SDS011;58877;51.992;4.504;2024-03-29T08:57:52;1.20;;;1.19;;
71176;SDS011;58877;51.992;4.504;2024-03-29T09:00:17;0.82;;;0.81;;
71176;SDS011;58877;51.992;4.504;2024-03-29T09:02:43;0.87;;;0.86;;
71176;SDS011;58877;51.992;4.504;2024-03-29T09:05:11;1.28;;;1.27;;
71176;SDS011;58877;51.992;4.504;2024-03-29T09:07:37;1.03;;;1.02;;
71176;SDS011;58877;51.992;4.504;2024-03-29T09:10:04;0.90;;;0.89;;
71176;SDS011;58877;51.992;4.504;2024-03-29T09:12:30;1.16;;;1.15;;
71176;SDS011;58877;51.992;4.504;2024-03-29T09:14:58;0.79;;;0.79;;
71176;SDS011;58877;51.992;4.504;2024-03-29T09:17:24;0.84;;;0.84;;
71176;SDS011;58877;51.992;4.504;2024-03-29T09:19:51;0.96;;;0.96;;
71176;SDS011;58877;51.992;4.504;2024-03-29T09:22:19;0.76;;;0.76;;
71176;SDS011;58877;51.992;4.504;2024-03-29T09:24:45;0.93;;;0.93;;
71176;SDS011;58877;51.992;4.504;2024-03-29T09:27:10;0.81;;;0.81;;
71176;SDS011;58877;51.992;4.504;2024-03-29T09:29:37;1.14;;;1.14;;
71176;SDS011;58877;51.992;4.504;2024-03-29T09:32:03;0.75;;;0.75;;
71176;SDS011;58877;51.992;4.504;2024-03-29T09:34:29;0.76;;;0.76;;
71176;SDS011;58877;51.992;4.504;2024-03-29T09:36:56;0.79;;;0.79;;
71176;SDS011;58877;51.992;4.504;2024-03-29T09:39:22;0.84;;;0.84;;
71176;SDS011;58877;51.992;4.504;2024-03-29T09:41:48;0.76;;;0.75;;
71176;SDS011;58877;51.992;4.504;2024-03-29T09:44:16;1.11;;;1.10;;
71176;SDS011;58877;51.992;4.504;2024-03-29T09:46:42;0.88;;;0.87;;
71176;SDS011;58877;51.992;4.504;2024-03-29T09:49:09;0.89;;;0.89;;
71176;SDS011;58877;51.992;4.504;2024-03-29T09:51:39;1.03;;;1.03;;
71176;SDS011;58877;51.992;4.504;2024-03-29T09:54:06;1.03;;;1.03;;
71176;SDS011;58877;51.992;4.504;2024-03-29T09:56:37;0.97;;;0.97;;
71176;SDS011;58877;51.992;4.504;2024-03-29T09:59:03;1.29;;;1.29;;
71176;SDS011;58877;51.992;4.504;2024-03-29T10:01:29;1.31;;;1.31;;
71176;SDS011;58877;51.992;4.504;2024-03-29T10:03:56;1.04;;;1.04;;
71176;SDS011;58877;51.992;4.504;2024-03-29T10:06:25;1.34;;;1.33;;
71176;SDS011;58877;51.992;4.504;2024-03-29T10:08:55;1.28;;;1.28;;
71176;SDS011;58877;51.992;4.504;2024-03-29T10:11:26;1.39;;;1.39;;
71176;SDS011;58877;51.992;4.504;2024-03-29T10:13:51;1.46;;;1.46;;
71176;SDS011;58877;51.992;4.504;2024-03-29T10:16:20;1.33;;;1.33;;
71176;SDS011;58877;51.992;4.504;2024-03-29T10:18:47;1.43;;;1.43;;
71176;SDS011;58877;51.992;4.504;2024-03-29T10:21:13;1.65;;;1.65;;
71176;SDS011;58877;51.992;4.504;2024-03-29T10:23:40;1.67;;;1.67;;
71176;SDS011;58877;51.992;4.504;2024-03-29T10:26:06;1.61;;;1.60;;
71176;SDS011;58877;51.992;4.504;2024-03-29T10:28:33;1.79;;;1.79;;
71176;SDS011;58877;51.992;4.504;2024-03-29T10:31:00;2.01;;;2.00;;
71176;SDS011;58877;51.992;4.504;2024-03-29T10:33:32;1.89;;;1.88;;
71176;SDS011;58877;51.992;4.504;2024-03-29T10:36:02;1.74;;;1.74;;
71176;SDS011;58877;51.992;4.504;2024-03-29T10:38:33;1.59;;;1.59;;
71176;SDS011;58877;51.992;4.504;2024-03-29T10:40:59;1.41;;;1.41;;
71176;SDS011;58877;51.992;4.504;2024-03-29T10:43:28;1.32;;;1.32;;
71176;SDS011;58877;51.992;4.504;2024-03-29T10:45:55;1.34;;;1.34;;
71176;SDS011;58877;51.992;4.504;2024-03-29T10:48:25;1.46;;;1.46;;
71176;SDS011;58877;51.992;4.504;2024-03-29T10:50:53;1.71;;;1.71;;
71176;SDS011;58877;51.992;4.504;2024-03-29T10:53:23;1.58;;;1.58;;
71176;SDS011;58877;51.992;4.504;2024-03-29T10:55:58;1.75;;;1.75;;
71176;SDS011;58877;51.992;4.504;2024-03-29T10:58:27;1.45;;;1.45;;
71176;SDS011;58877;51.992;4.504;2024-03-29T11:01:05;1.54;;;1.54;;
71176;SDS011;58877;51.992;4.504;2024-03-29T11:03:37;1.76;;;1.76;;
71176;SDS011;58877;51.992;4.504;2024-03-29T11:06:09;1.99;;;1.99;;
71176;SDS011;58877;51.992;4.504;2024-03-29T11:08:40;1.78;;;1.78;;
71176;SDS011;58877;51.992;4.504;2024-03-29T11:11:11;1.82;;;1.82;;
71176;SDS011;58877;51.992;4.504;2024-03-29T11:16:21;2.05;;;2.05;;
71176;SDS011;58877;51.992;4.504;2024-03-29T11:18:49;1.78;;;1.78;;
71176;SDS011;58877;51.992;4.504;2024-03-29T11:21:17;1.74;;;1.74;;
71176;SDS011;58877;51.992;4.504;2024-03-29T11:23:48;1.96;;;1.96;;
71176;SDS011;58877;51.992;4.504;2024-03-29T11:26:15;2.35;;;2.35;;
71176;SDS011;58877;51.992;4.504;2024-03-29T11:28:47;2.40;;;2.40;;
71176;SDS011;58877;51.992;4.504;2024-03-29T11:31:14;2.32;;;2.32;;
71176;SDS011;58877;51.992;4.504;2024-03-29T11:36:20;2.34;;;2.34;;
71176;SDS011;58877;51.992;4.504;2024-03-29T11:38:52;2.39;;;2.39;;
71176;SDS011;58877;51.992;4.504;2024-03-29T11:41:21;2.44;;;2.44;;
71176;SDS011;58877;51.992;4.504;2024-03-29T11:43:52;2.31;;;2.31;;
71176;SDS011;58877;51.992;4.504;2024-03-29T11:46:19;2.48;;;2.48;;
71176;SDS011;58877;51.992;4.504;2024-03-29T11:48:46;2.74;;;2.74;;
71176;SDS011;58877;51.992;4.504;2024-03-29T11:51:17;2.75;;;2.75;;
71176;SDS011;58877;51.992;4.504;2024-03-29T11:53:47;2.88;;;2.88;;
71176;SDS011;58877;51.992;4.504;2024-03-29T11:56:13;3.19;;;3.19;;
71176;SDS011;58877;51.992;4.504;2024-03-29T11:58:42;3.66;;;3.66;;
71176;SDS011;58877;51.992;4.504;2024-03-29T12:01:09;3.84;;;3.84;;
71176;SDS011;58877;51.992;4.504;2024-03-29T12:03:37;4.01;;;4.01;;
71176;SDS011;58877;51.992;4.504;2024-03-29T12:06:05;4.14;;;4.14;;
71176;SDS011;58877;51.992;4.504;2024-03-29T12:08:35;4.18;;;4.18;;
71176;SDS011;58877;51.992;4.504;2024-03-29T12:11:04;4.40;;;4.40;;
71176;SDS011;58877;51.992;4.504;2024-03-29T12:13:30;4.26;;;4.26;;
71176;SDS011;58877;51.992;4.504;2024-03-29T12:15:57;4.44;;;4.44;;
71176;SDS011;58877;51.992;4.504;2024-03-29T12:18:24;4.59;;;4.59;;
71176;SDS011;58877;51.992;4.504;2024-03-29T12:20:53;4.80;;;4.80;;
71176;SDS011;58877;51.992;4.504;2024-03-29T12:23:23;4.96;;;4.96;;
71176;SDS011;58877;51.992;4.504;2024-03-29T12:25:58;5.18;;;5.18;;
71176;SDS011;58877;51.992;4.504;2024-03-29T12:28:25;4.65;;;4.65;;
71176;SDS011;58877;51.992;4.504;2024-03-29T12:30:52;5.04;;;5.04;;
71176;SDS011;58877;51.992;4.504;2024-03-29T12:33:20;4.49;;;4.49;;
71176;SDS011;58877;51.992;4.504;2024-03-29T12:35:51;4.53;;;4.53;;
71176;SDS011;58877;51.992;4.504;2024-03-29T12:38:19;4.35;;;4.35;;
71176;SDS011;58877;51.992;4.504;2024-03-29T12:40:47;3.85;;;3.85;;
71176;SDS011;58877;51.992;4.504;2024-03-29T12:43:21;3.87;;;3.87;;
71176;SDS011;58877;51.992;4.504;2024-03-29T12:45:48;4.18;;;4.18;;
71176;SDS011;58877;51.992;4.504;2024-03-29T12:48:16;3.94;;;3.94;;
71176;SDS011;58877;51.992;4.504;2024-03-29T12:50:45;3.32;;;3.32;;
71176;SDS011;58877;51.992;4.504;2024-03-29T12:53:12;3.33;;;3.33;;
71176;SDS011;58877;51.992;4.504;2024-03-29T12:55:40;3.42;;;3.42;;
71176;SDS011;58877;51.992;4.504;2024-03-29T12:58:10;3.04;;;3.04;;
71176;SDS011;58877;51.992;4.504;2024-03-29T13:00:38;2.42;;;2.42;;
71176;SDS011;58877;51.992;4.504;2024-03-29T13:03:04;2.33;;;2.33;;
71176;SDS011;58877;51.992;4.504;2024-03-29T13:05:37;2.33;;;2.33;;
71176;SDS011;58877;51.992;4.504;2024-03-29T13:08:08;2.72;;;2.72;;
71176;SDS011;58877;51.992;4.504;2024-03-29T13:10:36;2.65;;;2.65;;
71176;SDS011;58877;51.992;4.504;2024-03-29T13:13:07;2.56;;;2.56;;
71176;SDS011;58877;51.992;4.504;2024-03-29T13:15:34;2.74;;;2.74;;
71176;SDS011;58877;51.992;4.504;2024-03-29T13:18:02;2.54;;;2.54;;
71176;SDS011;58877;51.992;4.504;2024-03-29T13:20:32;2.32;;;2.32;;
71176;SDS011;58877;51.992;4.504;2024-03-29T13:23:06;2.30;;;2.30;;
71176;SDS011;58877;51.992;4.504;2024-03-29T13:25:31;2.56;;;2.56;;
71176;SDS011;58877;51.992;4.504;2024-03-29T13:27:58;2.15;;;2.15;;
71176;SDS011;58877;51.992;4.504;2024-03-29T13:30:24;2.03;;;2.03;;
71176;SDS011;58877;51.992;4.504;2024-03-29T13:32:51;1.79;;;1.79;;
71176;SDS011;58877;51.992;4.504;2024-03-29T13:35:18;2.01;;;2.00;;
71176;SDS011;58877;51.992;4.504;2024-03-29T13:37:47;1.97;;;1.97;;
71176;SDS011;58877;51.992;4.504;2024-03-29T13:40:15;2.41;;;2.41;;
71176;SDS011;58877;51.992;4.504;2024-03-29T13:42:43;1.84;;;1.84;;
71176;SDS011;58877;51.992;4.504;2024-03-29T13:45:09;1.80;;;1.80;;
71176;SDS011;58877;51.992;4.504;2024-03-29T13:47:40;1.87;;;1.87;;
71176;SDS011;58877;51.992;4.504;2024-03-29T13:50:07;1.85;;;1.85;;
71176;SDS011;58877;51.992;4.504;2024-03-29T13:52:34;1.59;;;1.59;;
71176;SDS011;58877;51.992;4.504;2024-03-29T13:55:01;1.86;;;1.86;;
71176;SDS011;58877;51.992;4.504;2024-03-29T13:57:30;1.87;;;1.87;;
71176;SDS011;58877;51.992;4.504;2024-03-29T13:59:59;1.76;;;1.76;;
71176;SDS011;58877;51.992;4.504;2024-03-29T14:02:26;1.85;;;1.85;;
71176;SDS011;58877;51.992;4.504;2024-03-29T14:04:53;1.73;;;1.73;;
71176;SDS011;58877;51.992;4.504;2024-03-29T14:07:19;1.68;;;1.68;;
71176;SDS011;58877;51.992;4.504;2024-03-29T14:09:46;1.63;;;1.63;;
71176;SDS011;58877;51.992;4.504;2024-03-29T14:12:12;1.67;;;1.67;;
71176;SDS011;58877;51.992;4.504;2024-03-29T14:14:39;1.68;;;1.68;;
71176;SDS011;58877;51.992;4.504;2024-03-29T14:17:09;1.67;;;1.67;;
71176;SDS011;58877;51.992;4.504;2024-03-29T14:19:35;1.78;;;1.78;;
71176;SDS011;58877;51.992;4.504;2024-03-29T14:22:05;1.90;;;1.90;;
71176;SDS011;58877;51.992;4.504;2024-03-29T14:24:32;1.95;;;1.95;;
71176;SDS011;58877;51.992;4.504;2024-03-29T14:27:05;1.86;;;1.86;;
71176;SDS011;58877;51.992;4.504;2024-03-29T14:29:31;1.77;;;1.77;;
71176;SDS011;58877;51.992;4.504;2024-03-29T14:31:58;1.85;;;1.85;;
71176;SDS011;58877;51.992;4.504;2024-03-29T14:34:24;1.80;;;1.80;;
71176;SDS011;58877;51.992;4.504;2024-03-29T14:36:51;1.72;;;1.72;;
71176;SDS011;58877;51.992;4.504;2024-03-29T14:39:17;1.79;;;1.79;;
71176;SDS011;58877;51.992;4.504;2024-03-29T14:41:46;1.83;;;1.83;;
71176;SDS011;58877;51.992;4.504;2024-03-29T14:44:18;1.83;;;1.83;;
71176;SDS011;58877;51.992;4.504;2024-03-29T14:46:46;1.78;;;1.78;;
71176;SDS011;58877;51.992;4.504;2024-03-29T14:49:12;1.51;;;1.51;;
71176;SDS011;58877;51.992;4.504;2024-03-29T14:51:39;1.49;;;1.49;;
71176;SDS011;58877;51.992;4.504;2024-03-29T14:54:06;1.34;;;1.34;;